CheckWX is a tool to help pilots better visualize weather data.  It is not intended as a substitute for an official pre-flight weather briefing.

04:14:33 UTC

KCVB METAR
Castroville Municipal Airport
Castroville, Texas, USA
Current

20 mins ago

KCVB 290355Z AUTO 00000KT 10SM CLR 12/01 A3036 RMK AO2 T01190007
Observed
Feb-29 @ 03:55 UTC
Visibility
10 SM
Flight Rules
VFR
Cloud Levels
  • Clear skies
Temperature
12°C / 54°F
Dewpoint
C / 34°F
Humidity
47%
Altimeter
30.36" Hg
Pressure
1028.12 hPa
Previous

40 mins ago

KCVB 290335Z AUTO 00000KT 10SM CLR 12/M01 A3036 RMK AO2 T01211008
Observed
Feb-29 @ 03:35 UTC
Visibility
10 SM
Flight Rules
VFR
Cloud Levels
  • Clear skies
Temperature
12°C / 54°F
Dewpoint
-1°C / 30°F
Humidity
41%
Altimeter
30.36" Hg
Pressure
1028.12 hPa
Previous

60 mins ago

KCVB 290315Z AUTO 00000KT 10SM CLR 12/M01 A3036 RMK AO2 T01241012
Observed
Feb-29 @ 03:15 UTC
Visibility
10 SM
Flight Rules
VFR
Cloud Levels
  • Clear skies
Temperature
12°C / 54°F
Dewpoint
-1°C / 30°F
Humidity
41%
Altimeter
30.36" Hg
Pressure
1028.12 hPa